Time;durP1;ratioP1;P1;durP2;ratioP2;P2;SDS_P1;SDS_P2;PMS_P1;PMS_P2;Temp;Humidity;BMP_temperature;BMP_pressure;BME280_temperature;BME280_humidity;BME280_pressure;Samples;Min_cycle;Max_cycle;Signal;HPM_P1;HPM_P2
2022/08/14 00:00:28;;;;;;;6.60;5.63;;;;;;;;;;5035517;28;20602;-68
2022/08/14 00:02:55;;;;;;;7.97;5.60;;;;;;;;;;5035570;28;20616;-71
2022/08/14 00:05:21;;;;;;;6.33;5.57;;;;;;;;;;5053557;28;20273;-68
2022/08/14 00:07:48;;;;;;;7.03;5.70;;;;;;;;;;5035365;28;20256;-67
2022/08/14 00:10:17;;;;;;;6.43;5.80;;;;;;;;;;5053497;28;20588;-68
2022/08/14 00:12:45;;;;;;;8.07;5.23;;;;;;;;;;5053090;28;20252;-70
2022/08/14 00:15:20;;;;;;;7.87;5.43;;;;;;;;;;5055823;28;20205;-69
2022/08/14 00:17:46;;;;;;;5.83;5.27;;;;;;;;;;5057166;28;20626;-66
2022/08/14 00:20:12;;;;;;;6.23;5.50;;;;;;;;;;5057274;28;20208;-66
2022/08/14 00:22:38;;;;;;;5.70;5.20;;;;;;;;;;5056894;28;20194;-66
2022/08/14 00:25:05;;;;;;;7.47;5.83;;;;;;;;;;5039276;28;20178;-66
2022/08/14 00:27:31;;;;;;;7.63;5.90;;;;;;;;;;5057116;28;20183;-66
2022/08/14 00:29:57;;;;;;;6.30;5.70;;;;;;;;;;5057293;28;20208;-66
2022/08/14 00:32:23;;;;;;;6.43;5.60;;;;;;;;;;5056635;28;20300;-66
2022/08/14 00:34:49;;;;;;;6.97;5.77;;;;;;;;;;5056902;28;20198;-66
2022/08/14 00:37:15;;;;;;;7.00;5.93;;;;;;;;;;5056737;28;20177;-66
2022/08/14 00:39:41;;;;;;;6.80;5.43;;;;;;;;;;5056509;28;20527;-68
2022/08/14 00:42:07;;;;;;;7.13;5.97;;;;;;;;;;5056512;28;20203;-67
2022/08/14 00:44:33;;;;;;;6.73;5.67;;;;;;;;;;5056427;28;20184;-66
2022/08/14 00:47:08;;;;;;;5.83;5.27;;;;;;;;;;5056575;28;20182;-67
2022/08/14 00:49:35;;;;;;;10.53;6.40;;;;;;;;;;5038611;28;20182;-66
2022/08/14 00:52:01;;;;;;;7.53;6.77;;;;;;;;;;5056558;28;20194;-67
2022/08/14 00:54:27;;;;;;;6.87;6.20;;;;;;;;;;5056296;28;20229;-66
2022/08/14 00:56:53;;;;;;;7.80;6.03;;;;;;;;;;5056112;28;20202;-66
2022/08/14 00:59:19;;;;;;;7.13;6.23;;;;;;;;;;5038256;28;20266;-66
2022/08/14 01:01:45;;;;;;;6.93;5.80;;;;;;;;;;5055966;28;20796;-66
2022/08/14 01:04:11;;;;;;;7.23;6.30;;;;;;;;;;5038151;28;20178;-66
2022/08/14 01:06:38;;;;;;;6.03;5.43;;;;;;;;;;5056304;28;20177;-66
2022/08/14 01:09:04;;;;;;;7.57;5.73;;;;;;;;;;5056172;28;20240;-66
2022/08/14 01:11:30;;;;;;;8.07;5.80;;;;;;;;;;5055836;28;20206;-66
2022/08/14 01:13:59;;;;;;;8.23;5.90;;;;;;;;;;5056368;28;20183;-71
2022/08/14 01:16:25;;;;;;;6.30;5.70;;;;;;;;;;5037870;28;20228;-67
2022/08/14 01:21:41;;;;;;;6.27;5.70;;;;;;;;;;5056033;28;20209;-66
2022/08/14 01:24:07;;;;;;;7.97;5.97;;;;;;;;;;5056080;28;20252;-66
2022/08/14 01:26:34;;;;;;;6.47;5.87;;;;;;;;;;5055792;28;20181;-66
2022/08/14 01:29:01;;;;;;;6.50;5.90;;;;;;;;;;5056076;28;20179;-66
2022/08/14 01:31:28;;;;;;;6.07;5.30;;;;;;;;;;5037518;28;20185;-67
2022/08/14 01:33:55;;;;;;;6.93;6.07;;;;;;;;;;5037758;28;20179;-66
2022/08/14 01:36:22;;;;;;;9.37;6.03;;;;;;;;;;5055512;28;20213;-66
2022/08/14 01:38:50;;;;;;;6.97;6.07;;;;;;;;;;5055509;28;20171;-66
2022/08/14 01:41:18;;;;;;;6.27;5.70;;;;;;;;;;5055538;28;20665;-66
2022/08/14 01:44:00;;;;;;;6.17;5.67;;;;;;;;;;5055534;28;20167;-66
2022/08/14 01:46:27;;;;;;;7.23;6.60;;;;;;;;;;5055653;28;20197;-66
2022/08/14 01:48:54;;;;;;;6.97;6.27;;;;;;;;;;5055270;28;20253;-66
2022/08/14 01:51:25;;;;;;;8.40;6.10;;;;;;;;;;5037381;28;20183;-66
2022/08/14 01:53:53;;;;;;;7.80;6.20;;;;;;;;;;5055505;28;20155;-66
2022/08/14 01:56:20;;;;;;;8.83;6.30;;;;;;;;;;5055068;28;20198;-66
2022/08/14 01:58:48;;;;;;;6.53;5.93;;;;;;;;;;5055548;28;20693;-66
2022/08/14 02:01:17;;;;;;;10.13;6.47;;;;;;;;;;5055344;28;20175;-68
2022/08/14 02:03:44;;;;;;;7.47;6.47;;;;;;;;;;5055067;28;20253;-66
2022/08/14 02:06:10;;;;;;;6.50;5.83;;;;;;;;;;5055414;28;20213;-66
2022/08/14 02:08:37;;;;;;;7.40;6.50;;;;;;;;;;5037800;28;20239;-65
2022/08/14 02:11:16;;;;;;;6.47;5.83;;;;;;;;;;5055001;28;20224;-66
2022/08/14 02:13:43;;;;;;;9.50;6.17;;;;;;;;;;5055092;28;20163;-66
2022/08/14 02:16:12;;;;;;;7.40;6.00;;;;;;;;;;5055114;28;20579;-67
2022/08/14 02:18:38;;;;;;;9.33;6.17;;;;;;;;;;5055020;28;20179;-66
2022/08/14 02:21:05;;;;;;;6.97;6.37;;;;;;;;;;5037003;28;20670;-66
2022/08/14 02:23:31;;;;;;;6.73;6.03;;;;;;;;;;5036786;28;20221;-67
2022/08/14 02:26:01;;;;;;;7.77;6.60;;;;;;;;;;5054677;28;20232;-66
2022/08/14 02:28:30;;;;;;;8.27;6.23;;;;;;;;;;5054985;28;20189;-66
2022/08/14 02:30:56;;;;;;;7.87;6.13;;;;;;;;;;5036703;28;20182;-66
2022/08/14 02:33:22;;;;;;;7.50;6.73;;;;;;;;;;5054597;28;20616;-66
2022/08/14 02:35:49;;;;;;;6.37;5.87;;;;;;;;;;5054449;28;20202;-67
2022/08/14 02:38:15;;;;;;;7.47;6.00;;;;;;;;;;5054203;28;20589;-66
2022/08/14 02:40:41;;;;;;;6.90;6.40;;;;;;;;;;5054452;28;20217;-66
2022/08/14 02:43:07;;;;;;;6.20;5.67;;;;;;;;;;5036527;28;20202;-67
2022/08/14 02:45:33;;;;;;;6.60;6.00;;;;;;;;;;5054482;28;20178;-66
2022/08/14 02:48:05;;;;;;;7.03;6.43;;;;;;;;;;5036326;28;20182;-67
2022/08/14 02:50:31;;;;;;;6.77;6.17;;;;;;;;;;5054213;28;20183;-67
2022/08/14 02:52:57;;;;;;;10.70;6.87;;;;;;;;;;5036210;28;20210;-67
2022/08/14 02:55:23;;;;;;;7.50;6.70;;;;;;;;;;5053938;28;20234;-66
2022/08/14 02:57:53;;;;;;;6.77;6.20;;;;;;;;;;5036225;28;20179;-67
2022/08/14 03:00:20;;;;;;;7.30;6.60;;;;;;;;;;5054184;28;20245;-68
2022/08/14 03:02:47;;;;;;;6.93;6.20;;;;;;;;;;5054064;28;20218;-67
2022/08/14 03:05:13;;;;;;;6.83;6.00;;;;;;;;;;5053832;28;20175;-66
2022/08/14 03:07:39;;;;;;;7.30;6.43;;;;;;;;;;5054400;28;20185;-68
2022/08/14 03:10:05;;;;;;;9.27;6.40;;;;;;;;;;5053817;28;20183;-66
2022/08/14 03:12:32;;;;;;;7.60;6.90;;;;;;;;;;5054189;28;20202;-67
2022/08/14 03:14:58;;;;;;;8.87;6.60;;;;;;;;;;5053909;28;20547;-66
2022/08/14 03:17:24;;;;;;;6.53;5.93;;;;;;;;;;5054310;28;20639;-66
2022/08/14 03:19:51;;;;;;;7.23;6.40;;;;;;;;;;5035902;28;20189;-69
2022/08/14 03:22:17;;;;;;;7.30;6.60;;;;;;;;;;5035790;28;20198;-66
2022/08/14 03:24:43;;;;;;;7.07;6.37;;;;;;;;;;5053827;28;20186;-66
2022/08/14 03:27:12;;;;;;;7.30;6.67;;;;;;;;;;5053597;28;20257;-68
2022/08/14 03:29:39;;;;;;;11.07;6.63;;;;;;;;;;5053867;28;20170;-66
2022/08/14 03:32:05;;;;;;;7.00;6.40;;;;;;;;;;5053389;28;20653;-66
2022/08/14 03:34:31;;;;;;;7.60;6.90;;;;;;;;;;5053427;28;20239;-66
2022/08/14 03:36:57;;;;;;;7.50;6.73;;;;;;;;;;5050863;23;20316;-67
2022/08/14 03:39:25;;;;;;;7.23;6.53;;;;;;;;;;5053351;28;20257;-67
2022/08/14 03:41:54;;;;;;;7.90;7.17;;;;;;;;;;5035238;28;20184;-67
2022/08/14 03:44:21;;;;;;;7.47;6.50;;;;;;;;;;5035279;28;20188;-67
2022/08/14 03:46:47;;;;;;;7.73;6.60;;;;;;;;;;5052834;28;20305;-67
2022/08/14 03:49:13;;;;;;;7.50;6.83;;;;;;;;;;5052632;28;20656;-67
2022/08/14 03:51:39;;;;;;;8.07;7.27;;;;;;;;;;5053320;28;20594;-67
2022/08/14 03:54:11;;;;;;;9.20;7.07;;;;;;;;;;5052998;28;20228;-67
2022/08/14 03:56:39;;;;;;;8.57;7.03;;;;;;;;;;5034754;28;20309;-67
2022/08/14 03:59:10;;;;;;;7.77;7.07;;;;;;;;;;5035082;28;20174;-69
2022/08/14 04:01:38;;;;;;;15.17;7.77;;;;;;;;;;5053155;28;20161;-66
2022/08/14 04:04:05;;;;;;;7.87;7.17;;;;;;;;;;5035006;28;20186;-67
2022/08/14 04:06:32;;;;;;;8.03;7.23;;;;;;;;;;5052855;28;20616;-67
2022/08/14 04:08:58;;;;;;;7.33;6.60;;;;;;;;;;5052790;28;20174;-67
2022/08/14 04:11:24;;;;;;;8.17;7.13;;;;;;;;;;5053284;28;20232;-67
2022/08/14 04:13:50;;;;;;;8.27;7.47;;;;;;;;;;5052738;28;20226;-67
2022/08/14 04:16:19;;;;;;;8.30;7.50;;;;;;;;;;5034779;28;20738;-67
2022/08/14 04:18:46;;;;;;;10.03;7.43;;;;;;;;;;5052801;28;20178;-67
2022/08/14 04:21:13;;;;;;;9.80;7.27;;;;;;;;;;5053161;28;20171;-67
2022/08/14 04:23:39;;;;;;;7.97;7.20;;;;;;;;;;5052678;28;20170;-67
2022/08/14 04:26:07;;;;;;;7.80;7.10;;;;;;;;;;5052517;28;20256;-66
2022/08/14 04:28:35;;;;;;;9.07;7.10;;;;;;;;;;5034930;28;20183;-69
2022/08/14 04:31:01;;;;;;;8.57;7.60;;;;;;;;;;5034709;28;20182;-69
2022/08/14 04:33:27;;;;;;;11.13;8.30;;;;;;;;;;5052543;28;20182;-68
2022/08/14 04:35:53;;;;;;;8.83;7.97;;;;;;;;;;5052346;28;20297;-69
2022/08/14 04:43:49;;;;;;;8.50;7.67;;;;;;;;;;5052922;28;20727;-68
2022/08/14 04:46:16;;;;;;;11.60;8.30;;;;;;;;;;5052652;28;20230;-69
2022/08/14 04:48:42;;;;;;;9.27;8.27;;;;;;;;;;5034613;28;20252;-68
2022/08/14 04:51:09;;;;;;;8.70;7.70;;;;;;;;;;5052471;28;20186;-68
2022/08/14 04:53:37;;;;;;;8.83;8.03;;;;;;;;;;5052828;28;20210;-69
2022/08/14 04:56:04;;;;;;;10.77;8.63;;;;;;;;;;5053330;28;20237;-69
2022/08/14 04:58:31;;;;;;;8.63;7.77;;;;;;;;;;5036501;28;20183;-69
2022/08/14 05:00:58;;;;;;;12.07;8.00;;;;;;;;;;5056396;28;20178;-69
2022/08/14 05:03:30;;;;;;;8.83;7.93;;;;;;;;;;5040230;28;20186;-69
2022/08/14 05:05:57;;;;;;;11.73;8.10;;;;;;;;;;5059241;28;20194;-66
2022/08/14 05:08:23;;;;;;;10.57;8.40;;;;;;;;;;5039832;28;20186;-66
2022/08/14 05:10:51;;;;;;;9.13;8.23;;;;;;;;;;5057162;28;20256;-67
2022/08/14 05:13:18;;;;;;;9.33;8.43;;;;;;;;;;5057235;28;20182;-67
2022/08/14 05:15:45;;;;;;;10.37;8.50;;;;;;;;;;5038288;28;20214;-67
2022/08/14 05:18:13;;;;;;;10.13;8.50;;;;;;;;;;5055976;28;20609;-67
2022/08/14 05:20:41;;;;;;;9.53;8.17;;;;;;;;;;5056253;28;20634;-67
2022/08/14 05:23:07;;;;;;;9.27;8.37;;;;;;;;;;5055665;28;20654;-67
2022/08/14 05:25:34;;;;;;;11.50;8.80;;;;;;;;;;5038205;28;20256;-67
2022/08/14 05:28:26;;;;;;;9.97;8.80;;;;;;;;;;5055696;28;20214;-67
2022/08/14 05:30:54;;;;;;;11.20;8.97;;;;;;;;;;5053431;28;20709;-67
2022/08/14 05:33:23;;;;;;;9.80;7.67;;;;;;;;;;5055698;28;20650;-67
2022/08/14 05:35:49;;;;;;;9.60;8.20;;;;;;;;;;5055108;28;20214;-68
2022/08/14 05:38:17;;;;;;;11.77;8.90;;;;;;;;;;5055306;28;20167;-68
2022/08/14 05:40:43;;;;;;;9.23;8.00;;;;;;;;;;5055336;28;20224;-68
2022/08/14 05:43:09;;;;;;;10.17;8.37;;;;;;;;;;5037411;28;20183;-68
2022/08/14 05:45:35;;;;;;;8.87;8.07;;;;;;;;;;5055000;28;20198;-68
2022/08/14 05:48:02;;;;;;;9.63;8.13;;;;;;;;;;5037176;28;20301;-68
2022/08/14 05:50:28;;;;;;;10.57;8.10;;;;;;;;;;5055121;28;20210;-68
2022/08/14 05:52:54;;;;;;;8.77;7.93;;;;;;;;;;5037135;28;20194;-68
2022/08/14 05:55:21;;;;;;;8.77;7.97;;;;;;;;;;5037016;28;20210;-68
2022/08/14 05:57:58;;;;;;;10.03;8.27;;;;;;;;;;5055008;28;20175;-68
2022/08/14 06:00:26;;;;;;;9.37;8.47;;;;;;;;;;5037086;28;20234;-67
2022/08/14 06:02:54;;;;;;;10.60;8.70;;;;;;;;;;5036999;28;20269;-68
2022/08/14 06:05:20;;;;;;;8.93;8.07;;;;;;;;;;5036809;28;20186;-67
2022/08/14 06:07:46;;;;;;;14.37;8.37;;;;;;;;;;5054860;28;20187;-68
2022/08/14 06:10:12;;;;;;;8.50;7.80;;;;;;;;;;5037008;28;20281;-68
2022/08/14 06:12:39;;;;;;;9.67;8.47;;;;;;;;;;5036109;28;20273;-68
2022/08/14 06:15:05;;;;;;;9.80;8.40;;;;;;;;;;5054606;28;20609;-68
2022/08/14 06:17:31;;;;;;;10.33;8.47;;;;;;;;;;5036675;28;20199;-68
2022/08/14 06:19:59;;;;;;;9.90;8.37;;;;;;;;;;5036872;28;20182;-68
2022/08/14 06:22:25;;;;;;;9.60;8.60;;;;;;;;;;5054732;28;20174;-68
2022/08/14 06:24:51;;;;;;;9.37;8.47;;;;;;;;;;5036715;28;20707;-68
2022/08/14 06:27:17;;;;;;;9.07;8.17;;;;;;;;;;5054594;28;20228;-68
2022/08/14 06:29:43;;;;;;;9.20;8.30;;;;;;;;;;5054487;28;20258;-68
2022/08/14 06:32:09;;;;;;;10.53;8.07;;;;;;;;;;5054404;28;20181;-68
2022/08/14 06:34:38;;;;;;;9.43;8.60;;;;;;;;;;5054707;28;20187;-67
2022/08/14 06:37:04;;;;;;;9.57;8.13;;;;;;;;;;5036267;28;20591;-67
2022/08/14 06:39:30;;;;;;;8.90;8.10;;;;;;;;;;5054678;28;20174;-67
2022/08/14 06:41:55;;;;;;;9.83;8.93;;;;;;;;;;5036378;28;20700;-67
2022/08/14 06:44:21;;;;;;;9.40;8.50;;;;;;;;;;5036166;28;20185;-68
2022/08/14 06:46:48;;;;;;;9.03;8.23;;;;;;;;;;5054022;28;20198;-68
2022/08/14 06:49:14;;;;;;;9.73;8.73;;;;;;;;;;5036230;28;20651;-67
2022/08/14 06:51:45;;;;;;;8.73;8.00;;;;;;;;;;5036598;28;20225;-68
2022/08/14 06:54:11;;;;;;;9.63;8.73;;;;;;;;;;5036153;28;20178;-68
2022/08/14 06:56:37;;;;;;;9.30;8.50;;;;;;;;;;5053712;28;20693;-68
2022/08/14 06:59:03;;;;;;;11.47;8.60;;;;;;;;;;5054019;28;20186;-68
2022/08/14 07:06:58;;;;;;;9.93;8.93;;;;;;;;;;5054050;28;20740;-68
2022/08/14 07:09:24;;;;;;;13.53;9.20;;;;;;;;;;5054154;28;20183;-68
2022/08/14 07:11:50;;;;;;;9.83;8.83;;;;;;;;;;5053809;28;20238;-68
2022/08/14 07:14:16;;;;;;;10.40;9.23;;;;;;;;;;5053685;28;20270;-68
2022/08/14 07:16:42;;;;;;;9.13;8.23;;;;;;;;;;5053294;28;20206;-68
2022/08/14 07:19:08;;;;;;;8.83;8.07;;;;;;;;;;5053751;28;20220;-68
2022/08/14 07:21:36;;;;;;;9.50;8.47;;;;;;;;;;5035982;28;20182;-68
2022/08/14 07:24:02;;;;;;;9.80;8.80;;;;;;;;;;5035909;28;20586;-67
2022/08/14 07:26:28;;;;;;;12.27;9.17;;;;;;;;;;5053493;28;20619;-68
2022/08/14 07:28:54;;;;;;;9.50;8.63;;;;;;;;;;5035635;28;20217;-69
2022/08/14 07:31:19;;;;;;;11.67;8.80;;;;;;;;;;5053299;28;20225;-68
2022/08/14 07:33:50;;;;;;;9.93;8.23;;;;;;;;;;5035247;28;20190;-68
2022/08/14 07:36:17;;;;;;;9.10;8.30;;;;;;;;;;5052958;28;20215;-68
2022/08/14 07:38:43;;;;;;;9.00;8.10;;;;;;;;;;5035246;28;20205;-67
2022/08/14 07:41:10;;;;;;;13.77;8.57;;;;;;;;;;5035237;28;20559;-68
2022/08/14 07:43:36;;;;;;;9.53;8.13;;;;;;;;;;5035147;28;20182;-68
2022/08/14 07:46:03;;;;;;;9.93;8.90;;;;;;;;;;5052946;28;20713;-68
2022/08/14 07:48:29;;;;;;;13.53;8.37;;;;;;;;;;5035065;28;20186;-68
2022/08/14 07:50:55;;;;;;;8.73;7.93;;;;;;;;;;5052903;28;20186;-68
2022/08/14 07:53:22;;;;;;;8.87;8.17;;;;;;;;;;5052864;28;20178;-68
2022/08/14 07:55:48;;;;;;;8.67;7.87;;;;;;;;;;5052755;28;20260;-68
2022/08/14 07:58:16;;;;;;;8.70;7.73;;;;;;;;;;5035096;28;20183;-68
2022/08/14 08:00:43;;;;;;;9.70;8.73;;;;;;;;;;5053137;28;20179;-68
2022/08/14 08:03:09;;;;;;;8.27;7.47;;;;;;;;;;5034974;28;20186;-68
2022/08/14 08:05:36;;;;;;;9.47;8.60;;;;;;;;;;5034924;28;20289;-68
2022/08/14 08:08:02;;;;;;;9.37;8.43;;;;;;;;;;5053271;28;20174;-68
2022/08/14 08:10:32;;;;;;;9.40;8.23;;;;;;;;;;5052754;28;20179;-68
2022/08/14 08:13:00;;;;;;;8.63;7.83;;;;;;;;;;5034722;28;20186;-68
2022/08/14 08:15:28;;;;;;;9.37;8.57;;;;;;;;;;5034536;28;20216;-68
2022/08/14 08:17:55;;;;;;;10.80;7.60;;;;;;;;;;5034870;28;20224;-68
2022/08/14 08:20:25;;;;;;;10.77;8.33;;;;;;;;;;5052734;28;20224;-68
2022/08/14 08:22:54;;;;;;;8.90;7.90;;;;;;;;;;5052779;28;20163;-68
2022/08/14 08:25:20;;;;;;;8.93;8.13;;;;;;;;;;5034780;28;20226;-68
2022/08/14 08:28:02;;;;;;;11.07;7.90;;;;;;;;;;5052769;28;20186;-69
2022/08/14 08:30:30;;;;;;;9.57;8.00;;;;;;;;;;5034751;28;20186;-68
2022/08/14 08:32:57;;;;;;;11.00;8.00;;;;;;;;;;5034789;28;20179;-69
2022/08/14 08:35:24;;;;;;;8.70;7.93;;;;;;;;;;5053527;28;20198;-68
2022/08/14 08:37:50;;;;;;;8.90;8.10;;;;;;;;;;5056761;28;20167;-68
2022/08/14 08:40:26;;;;;;;8.43;7.73;;;;;;;;;;5056688;28;20686;-68
2022/08/14 08:42:52;;;;;;;9.10;8.33;;;;;;;;;;5056413;28;20638;-68
2022/08/14 08:45:20;;;;;;;8.97;8.17;;;;;;;;;;5038448;28;20175;-68
2022/08/14 08:47:46;;;;;;;9.17;8.27;;;;;;;;;;5056221;28;20552;-68
2022/08/14 08:50:19;;;;;;;9.10;8.10;;;;;;;;;;5056564;28;20517;-69
2022/08/14 08:52:53;;;;;;;8.50;7.70;;;;;;;;;;5056196;28;20170;-68
2022/08/14 08:55:26;;;;;;;8.43;7.67;;;;;;;;;;5056525;28;20618;-68
2022/08/14 08:57:59;;;;;;;8.60;7.90;;;;;;;;;;5056186;28;20257;-68
2022/08/14 09:00:30;;;;;;;9.20;8.40;;;;;;;;;;5056637;28;20166;-68
2022/08/14 09:02:58;;;;;;;8.80;8.10;;;;;;;;;;5056324;28;20182;-69
2022/08/14 09:05:24;;;;;;;9.83;7.80;;;;;;;;;;5038518;28;20208;-68
2022/08/14 09:07:50;;;;;;;8.73;7.93;;;;;;;;;;5055936;28;20189;-68
2022/08/14 09:10:16;;;;;;;8.23;7.43;;;;;;;;;;5038023;28;20265;-68
2022/08/14 09:12:42;;;;;;;8.43;7.63;;;;;;;;;;5055840;28;20228;-68
2022/08/14 09:15:08;;;;;;;9.43;8.53;;;;;;;;;;5055790;28;20182;-68
2022/08/14 09:17:35;;;;;;;9.40;8.50;;;;;;;;;;5037896;28;20564;-69
2022/08/14 09:20:01;;;;;;;8.33;7.57;;;;;;;;;;5056334;28;20192;-68
2022/08/14 09:22:27;;;;;;;8.83;8.00;;;;;;;;;;5037658;28;20619;-68
2022/08/14 09:24:54;;;;;;;8.70;7.90;;;;;;;;;;5055581;28;20308;-68
2022/08/14 09:27:20;;;;;;;8.07;7.40;;;;;;;;;;5055368;28;20221;-68
2022/08/14 09:29:46;;;;;;;8.33;7.60;;;;;;;;;;5037605;28;20186;-68
2022/08/14 09:32:15;;;;;;;8.07;7.27;;;;;;;;;;5055425;28;20181;-68
2022/08/14 09:34:47;;;;;;;8.20;7.17;;;;;;;;;;5055278;28;20228;-66
2022/08/14 09:37:23;;;;;;;8.37;7.57;;;;;;;;;;5055857;28;20214;-65
2022/08/14 09:40:12;;;;;;;7.10;6.50;;;;;;;;;;5056056;28;20611;-65
2022/08/14 09:42:50;;;;;;;7.33;6.67;;;;;;;;;;5037900;28;20175;-65
2022/08/14 09:45:22;;;;;;;7.73;7.03;;;;;;;;;;5055162;28;20181;-65
2022/08/14 09:47:50;;;;;;;8.53;7.73;;;;;;;;;;5036173;28;20240;-67
2022/08/14 09:50:18;;;;;;;9.43;6.80;;;;;;;;;;5055064;28;20215;-67
2022/08/14 09:52:50;;;;;;;7.87;7.07;;;;;;;;;;5055649;28;20178;-65
2022/08/14 09:55:17;;;;;;;8.17;6.97;;;;;;;;;;5037122;28;20206;-65
2022/08/14 09:57:44;;;;;;;7.47;6.83;;;;;;;;;;5054933;28;20177;-68
2022/08/14 10:00:13;;;;;;;8.07;7.27;;;;;;;;;;5037169;28;20179;-68
2022/08/14 10:02:39;;;;;;;8.80;7.20;;;;;;;;;;5054859;28;20175;-69
2022/08/14 10:05:09;;;;;;;7.30;6.70;;;;;;;;;;5054813;28;20174;-68
2022/08/14 10:07:52;;;;;;;7.10;6.50;;;;;;;;;;5054846;28;20579;-69
2022/08/14 10:10:34;;;;;;;9.97;6.83;;;;;;;;;;5054748;28;20170;-68
2022/08/14 10:13:01;;;;;;;6.97;6.37;;;;;;;;;;5054703;28;20321;-68
2022/08/14 10:15:28;;;;;;;5.93;5.43;;;;;;;;;;5054766;28;20202;-68
2022/08/14 10:18:04;;;;;;;6.33;5.80;;;;;;;;;;5036667;28;20187;-68
2022/08/14 10:20:54;;;;;;;6.80;6.10;;;;;;;;;;5053558;28;20389;-66
2022/08/14 10:23:21;;;;;;;6.77;6.13;;;;;;;;;;5031396;28;20273;-68
2022/08/14 10:25:49;;;;;;;6.90;6.30;;;;;;;;;;5054424;28;20202;-66
2022/08/14 10:28:15;;;;;;;6.83;6.23;;;;;;;;;;5036650;28;20278;-65
2022/08/14 10:30:46;;;;;;;7.20;5.73;;;;;;;;;;5054417;28;20547;-65
2022/08/14 10:33:23;;;;;;;6.53;5.70;;;;;;;;;;5036322;28;20187;-68
2022/08/14 10:35:49;;;;;;;6.37;5.87;;;;;;;;;;5083279;22;20225;-68
2022/08/14 10:38:25;;;;;;;6.50;5.90;;;;;;;;;;5076506;28;20178;-69
2022/08/14 10:40:51;;;;;;;8.33;6.77;;;;;;;;;;5075300;28;20180;-69
2022/08/14 10:43:24;;;;;;;6.77;6.10;;;;;;;;;;5074593;28;20173;-70
2022/08/14 10:45:55;;;;;;;8.63;6.00;;;;;;;;;;5074868;28;20197;-68
2022/08/14 10:48:21;;;;;;;6.03;5.53;;;;;;;;;;5073462;28;20270;-67
2022/08/14 10:50:50;;;;;;;7.10;6.10;;;;;;;;;;5074739;28;20177;-66
2022/08/14 10:53:26;;;;;;;6.70;6.10;;;;;;;;;;5074811;28;20180;-67
2022/08/14 10:55:57;;;;;;;7.40;6.30;;;;;;;;;;5073221;28;20253;-68
2022/08/14 10:58:27;;;;;;;6.87;6.27;;;;;;;;;;5074842;28;20163;-67
2022/08/14 11:00:57;;;;;;;6.43;5.77;;;;;;;;;;5075434;28;20198;-68
2022/08/14 11:03:24;;;;;;;6.33;5.83;;;;;;;;;;5073791;28;20178;-68
2022/08/14 11:05:51;;;;;;;6.37;5.87;;;;;;;;;;5073238;28;20251;-68
2022/08/14 11:08:18;;;;;;;7.03;6.03;;;;;;;;;;5074261;28;20705;-68
2022/08/14 11:10:50;;;;;;;6.50;6.00;;;;;;;;;;5074579;28;20181;-67
2022/08/14 11:13:20;;;;;;;6.60;6.10;;;;;;;;;;5073229;28;20204;-67
2022/08/14 11:15:47;;;;;;;9.93;6.60;;;;;;;;;;5073855;28;20283;-68
2022/08/14 11:18:13;;;;;;;6.47;5.90;;;;;;;;;;5074273;28;20615;-67
2022/08/14 11:20:44;;;;;;;7.13;6.40;;;;;;;;;;5074526;28;20196;-68
2022/08/14 11:23:12;;;;;;;6.63;6.10;;;;;;;;;;5072753;28;20174;-67
2022/08/14 11:25:43;;;;;;;7.00;6.40;;;;;;;;;;5074168;28;20202;-67
2022/08/14 11:28:09;;;;;;;6.33;5.80;;;;;;;;;;5074320;28;20166;-67
2022/08/14 11:30:39;;;;;;;7.10;6.40;;;;;;;;;;5074511;28;20173;-67
2022/08/14 11:33:06;;;;;;;7.20;6.60;;;;;;;;;;5073107;28;20177;-68
2022/08/14 11:35:32;;;;;;;6.93;6.23;;;;;;;;;;5073554;28;20193;-68
2022/08/14 11:38:02;;;;;;;6.53;6.03;;;;;;;;;;5074307;28;20177;-68
2022/08/14 11:40:29;;;;;;;9.17;5.80;;;;;;;;;;5073856;28;20178;-68
2022/08/14 11:42:56;;;;;;;6.97;6.37;;;;;;;;;;5072584;28;20174;-69
2022/08/14 11:45:27;;;;;;;7.13;6.33;;;;;;;;;;5074117;28;20182;-68
2022/08/14 11:47:55;;;;;;;6.82;6.20;;;;;;;;;;5072478;28;20204;-67
2022/08/14 11:50:23;;;;;;;6.90;6.40;;;;;;;;;;5074101;28;20178;-67
2022/08/14 11:52:49;;;;;;;7.47;6.77;;;;;;;;;;5073610;28;20243;-67
2022/08/14 11:55:15;;;;;;;6.38;5.88;;;;;;;;;;5073251;28;20638;-67
2022/08/14 11:57:42;;;;;;;6.85;6.35;;;;;;;;;;5073497;28;20727;-67
2022/08/14 12:00:10;;;;;;;6.53;6.03;;;;;;;;;;5074045;28;20173;-68
2022/08/14 12:02:36;;;;;;;6.35;5.85;;;;;;;;;;5073534;28;20704;-68
2022/08/14 12:05:03;;;;;;;8.82;6.45;;;;;;;;;;5072216;28;20205;-68
2022/08/14 12:07:29;;;;;;;6.95;6.32;;;;;;;;;;5073209;28;20276;-68
2022/08/14 12:09:57;;;;;;;6.70;5.95;;;;;;;;;;5074029;28;20548;-68
2022/08/14 12:12:24;;;;;;;6.63;6.03;;;;;;;;;;5077646;28;20309;-68
2022/08/14 12:14:58;;;;;;;6.78;6.18;;;;;;;;;;5077631;28;20186;-69
2022/08/14 12:17:30;;;;;;;7.22;6.63;;;;;;;;;;5077543;28;20205;-68
2022/08/14 12:19:57;;;;;;;7.30;6.70;;;;;;;;;;5077650;28;20248;-68
2022/08/14 12:22:38;;;;;;;8.43;6.20;;;;;;;;;;5076593;28;20242;-69
2022/08/14 12:25:06;;;;;;;7.10;6.50;;;;;;;;;;5079227;28;20185;-68
2022/08/14 12:27:35;;;;;;;6.85;6.35;;;;;;;;;;5078042;28;20202;-68
2022/08/14 12:30:01;;;;;;;6.53;6.03;;;;;;;;;;5078016;28;20656;-68
2022/08/14 12:32:37;;;;;;;6.80;5.93;;;;;;;;;;5077566;28;20253;-70
2022/08/14 12:35:03;;;;;;;8.73;6.70;;;;;;;;;;5077560;28;20166;-70
2022/08/14 12:37:30;;;;;;;7.53;6.93;;;;;;;;;;5075889;28;20223;-68
2022/08/14 12:40:07;;;;;;;7.88;6.78;;;;;;;;;;5076145;28;20181;-68
2022/08/14 12:42:34;;;;;;;7.45;6.80;;;;;;;;;;5076019;28;20170;-68
2022/08/14 12:45:00;;;;;;;6.40;5.90;;;;;;;;;;5076038;28;20177;-68
2022/08/14 12:47:30;;;;;;;7.28;6.53;;;;;;;;;;5075500;28;20224;-68
2022/08/14 12:49:56;;;;;;;6.85;6.25;;;;;;;;;;5077088;28;20178;-67
2022/08/14 12:52:30;;;;;;;6.53;5.90;;;;;;;;;;5076903;28;20184;-67
2022/08/14 12:54:57;;;;;;;6.20;5.38;;;;;;;;;;5076863;28;20719;-68
2022/08/14 12:57:32;;;;;;;6.32;5.75;;;;;;;;;;5075177;28;20708;-67
2022/08/14 13:00:06;;;;;;;6.82;6.03;;;;;;;;;;5075864;28;20166;-68
2022/08/14 13:02:36;;;;;;;6.38;5.82;;;;;;;;;;5076417;28;20657;-68
2022/08/14 13:05:03;;;;;;;6.28;5.68;;;;;;;;;;5076096;28;20177;-67
2022/08/14 13:07:29;;;;;;;7.28;6.38;;;;;;;;;;5074980;28;20259;-68
2022/08/14 13:09:57;;;;;;;6.57;5.90;;;;;;;;;;5076349;28;20200;-67
2022/08/14 13:12:28;;;;;;;6.88;6.28;;;;;;;;;;5076230;28;20641;-68
2022/08/14 13:14:56;;;;;;;7.88;5.72;;;;;;;;;;5076577;28;20249;-68
2022/08/14 13:17:23;;;;;;;6.05;5.57;;;;;;;;;;5076126;28;20205;-67
2022/08/14 13:19:49;;;;;;;5.68;5.25;;;;;;;;;;5076484;28;20272;-67
2022/08/14 13:22:17;;;;;;;6.93;6.22;;;;;;;;;;5076652;28;20256;-69
2022/08/14 13:24:43;;;;;;;6.22;5.72;;;;;;;;;;5074786;28;20174;-69
2022/08/14 13:27:11;;;;;;;9.85;5.85;;;;;;;;;;5075864;28;20244;-68
2022/08/14 13:29:40;;;;;;;5.95;5.55;;;;;;;;;;5076260;28;20541;-69
2022/08/14 13:32:08;;;;;;;7.07;5.15;;;;;;;;;;5074652;28;20181;-68
2022/08/14 13:34:34;;;;;;;6.00;5.50;;;;;;;;;;5076038;28;20196;-68
2022/08/14 13:37:00;;;;;;;6.18;5.68;;;;;;;;;;5074197;28;20731;-67
2022/08/14 13:39:28;;;;;;;6.30;5.70;;;;;;;;;;5074420;28;20560;-69
2022/08/14 13:41:54;;;;;;;6.30;5.78;;;;;;;;;;5076207;28;20177;-68
2022/08/14 13:44:21;;;;;;;7.03;5.43;;;;;;;;;;5074229;28;20182;-68
2022/08/14 13:46:47;;;;;;;6.13;5.63;;;;;;;;;;5074342;28;20748;-68
2022/08/14 13:49:14;;;;;;;5.05;4.60;;;;;;;;;;5075599;28;20177;-68
2022/08/14 13:51:43;;;;;;;5.80;5.30;;;;;;;;;;5075408;28;20182;-68
2022/08/14 13:54:09;;;;;;;5.75;5.32;;;;;;;;;;5075754;28;20176;-68
2022/08/14 13:56:39;;;;;;;6.20;5.70;;;;;;;;;;5075386;28;20584;-68
2022/08/14 13:59:06;;;;;;;6.53;6.03;;;;;;;;;;5075525;28;20174;-69
2022/08/14 14:01:35;;;;;;;6.93;6.38;;;;;;;;;;5073999;28;20206;-69
2022/08/14 14:04:05;;;;;;;6.80;5.90;;;;;;;;;;5075326;28;20177;-68
2022/08/14 14:06:33;;;;;;;7.15;6.45;;;;;;;;;;5073866;28;20251;-70
2022/08/14 14:09:00;;;;;;;7.03;6.45;;;;;;;;;;5075218;28;20269;-68
2022/08/14 14:11:27;;;;;;;7.20;6.20;;;;;;;;;;5075078;28;20647;-69
2022/08/14 14:13:54;;;;;;;7.65;6.80;;;;;;;;;;5075635;28;20181;-68
2022/08/14 14:16:20;;;;;;;6.57;6.07;;;;;;;;;;5074958;28;20209;-68
2022/08/14 14:18:48;;;;;;;9.65;6.22;;;;;;;;;;5075315;28;20181;-68
2022/08/14 14:21:16;;;;;;;11.80;6.40;;;;;;;;;;5074852;28;20170;-69
2022/08/14 14:23:43;;;;;;;6.10;5.43;;;;;;;;;;5073624;28;20182;-67
2022/08/14 14:26:10;;;;;;;6.60;5.97;;;;;;;;;;5074553;28;20606;-69
2022/08/14 14:28:36;;;;;;;6.22;5.45;;;;;;;;;;5074709;28;20178;-69
2022/08/14 14:31:03;;;;;;;6.53;5.90;;;;;;;;;;5073487;28;20261;-68
2022/08/14 14:33:30;;;;;;;5.85;5.45;;;;;;;;;;5074082;28;20169;-69
2022/08/14 14:35:57;;;;;;;6.00;5.50;;;;;;;;;;5074459;28;20233;-69
2022/08/14 14:38:25;;;;;;;6.13;5.63;;;;;;;;;;5073449;28;20544;-69
2022/08/14 14:40:52;;;;;;;6.40;5.80;;;;;;;;;;5074553;28;20176;-68
2022/08/14 14:43:18;;;;;;;6.93;5.72;;;;;;;;;;5075095;28;20170;-70
2022/08/14 14:45:45;;;;;;;7.57;5.68;;;;;;;;;;5074575;28;20264;-69
2022/08/14 14:48:11;;;;;;;5.68;5.20;;;;;;;;;;5075022;28;20176;-69
2022/08/14 14:50:38;;;;;;;6.70;6.05;;;;;;;;;;5073330;28;20169;-69
2022/08/14 14:53:04;;;;;;;8.55;5.43;;;;;;;;;;5074483;28;20165;-69
2022/08/14 14:55:31;;;;;;;6.22;5.68;;;;;;;;;;5074536;28;20589;-69
2022/08/14 14:58:00;;;;;;;5.95;5.35;;;;;;;;;;5074861;28;20634;-69